sensor_id;sensor_type;location;lat;lon;timestamp;P1;durP1;ratioP1;P2;durP2;ratioP2
63444;SDS011;49573;47.682;9.170;2023-07-09T00:02:44;8.00;;;4.60;;
63444;SDS011;49573;47.682;9.170;2023-07-09T00:05:31;8.18;;;4.43;;
63444;SDS011;49573;47.682;9.170;2023-07-09T00:08:22;5.47;;;3.90;;
63444;SDS011;49573;47.682;9.170;2023-07-09T00:11:10;6.95;;;4.63;;
63444;SDS011;49573;47.682;9.170;2023-07-09T00:13:58;6.07;;;4.20;;
63444;SDS011;49573;47.682;9.170;2023-07-09T00:16:45;7.07;;;4.13;;
63444;SDS011;49573;47.682;9.170;2023-07-09T00:19:34;5.60;;;3.72;;
63444;SDS011;49573;47.682;9.170;2023-07-09T00:22:21;6.68;;;4.32;;
63444;SDS011;49573;47.682;9.170;2023-07-09T00:25:09;7.22;;;3.78;;
63444;SDS011;49573;47.682;9.170;2023-07-09T00:27:59;6.63;;;4.03;;
63444;SDS011;49573;47.682;9.170;2023-07-09T00:30:47;7.20;;;4.05;;
63444;SDS011;49573;47.682;9.170;2023-07-09T00:33:33;7.95;;;3.97;;
63444;SDS011;49573;47.682;9.170;2023-07-09T00:36:20;7.50;;;4.70;;
63444;SDS011;49573;47.682;9.170;2023-07-09T00:39:11;7.38;;;4.05;;
63444;SDS011;49573;47.682;9.170;2023-07-09T00:42:00;6.15;;;4.13;;
63444;SDS011;49573;47.682;9.170;2023-07-09T00:44:48;5.20;;;3.80;;
63444;SDS011;49573;47.682;9.170;2023-07-09T00:47:40;5.70;;;4.03;;
63444;SDS011;49573;47.682;9.170;2023-07-09T00:50:39;6.80;;;4.10;;
63444;SDS011;49573;47.682;9.170;2023-07-09T00:59:01;6.18;;;4.15;;
63444;SDS011;49573;47.682;9.170;2023-07-09T01:01:50;6.72;;;4.30;;
63444;SDS011;49573;47.682;9.170;2023-07-09T01:04:39;7.53;;;4.60;;
63444;SDS011;49573;47.682;9.170;2023-07-09T01:07:26;6.75;;;4.60;;
63444;SDS011;49573;47.682;9.170;2023-07-09T01:10:13;8.00;;;4.55;;
63444;SDS011;49573;47.682;9.170;2023-07-09T01:12:59;7.35;;;4.72;;
63444;SDS011;49573;47.682;9.170;2023-07-09T01:15:46;7.60;;;4.20;;
63444;SDS011;49573;47.682;9.170;2023-07-09T01:21:20;9.85;;;4.85;;
63444;SDS011;49573;47.682;9.170;2023-07-09T01:24:11;8.57;;;4.53;;
63444;SDS011;49573;47.682;9.170;2023-07-09T01:26:57;4.93;;;4.20;;
63444;SDS011;49573;47.682;9.170;2023-07-09T01:29:47;6.55;;;4.53;;
63444;SDS011;49573;47.682;9.170;2023-07-09T01:32:36;6.97;;;4.18;;
63444;SDS011;49573;47.682;9.170;2023-07-09T01:35:23;6.80;;;4.68;;
63444;SDS011;49573;47.682;9.170;2023-07-09T01:38:12;8.52;;;4.60;;
63444;SDS011;49573;47.682;9.170;2023-07-09T01:40:59;6.35;;;4.40;;
63444;SDS011;49573;47.682;9.170;2023-07-09T01:43:46;6.82;;;4.78;;
63444;SDS011;49573;47.682;9.170;2023-07-09T01:46:32;7.93;;;5.57;;
63444;SDS011;49573;47.682;9.170;2023-07-09T01:49:18;7.45;;;4.90;;
63444;SDS011;49573;47.682;9.170;2023-07-09T01:52:06;8.90;;;5.25;;
63444;SDS011;49573;47.682;9.170;2023-07-09T01:54:55;8.10;;;5.28;;
63444;SDS011;49573;47.682;9.170;2023-07-09T01:57:41;10.00;;;6.75;;
63444;SDS011;49573;47.682;9.170;2023-07-09T02:00:28;9.55;;;6.63;;
63444;SDS011;49573;47.682;9.170;2023-07-09T02:03:14;6.65;;;4.97;;
63444;SDS011;49573;47.682;9.170;2023-07-09T02:06:03;6.68;;;4.70;;
63444;SDS011;49573;47.682;9.170;2023-07-09T02:08:54;7.95;;;4.93;;
63444;SDS011;49573;47.682;9.170;2023-07-09T02:11:42;8.45;;;4.78;;
63444;SDS011;49573;47.682;9.170;2023-07-09T02:14:28;6.85;;;4.53;;
63444;SDS011;49573;47.682;9.170;2023-07-09T02:17:15;8.85;;;4.45;;
63444;SDS011;49573;47.682;9.170;2023-07-09T02:20:02;7.78;;;4.30;;
63444;SDS011;49573;47.682;9.170;2023-07-09T02:22:49;8.45;;;5.10;;
63444;SDS011;49573;47.682;9.170;2023-07-09T02:28:24;6.53;;;4.50;;
63444;SDS011;49573;47.682;9.170;2023-07-09T02:31:10;8.45;;;4.90;;
63444;SDS011;49573;47.682;9.170;2023-07-09T02:33:56;6.47;;;4.82;;
63444;SDS011;49573;47.682;9.170;2023-07-09T02:36:42;7.65;;;4.78;;
63444;SDS011;49573;47.682;9.170;2023-07-09T02:42:16;8.38;;;4.78;;
63444;SDS011;49573;47.682;9.170;2023-07-09T02:45:05;7.22;;;4.78;;
63444;SDS011;49573;47.682;9.170;2023-07-09T02:47:51;8.75;;;4.50;;
63444;SDS011;49573;47.682;9.170;2023-07-09T02:50:37;6.35;;;4.50;;
63444;SDS011;49573;47.682;9.170;2023-07-09T02:53:23;6.72;;;4.75;;
63444;SDS011;49573;47.682;9.170;2023-07-09T02:56:10;8.38;;;4.85;;
63444;SDS011;49573;47.682;9.170;2023-07-09T02:58:56;8.38;;;5.07;;
63444;SDS011;49573;47.682;9.170;2023-07-09T03:01:44;6.25;;;4.60;;
63444;SDS011;49573;47.682;9.170;2023-07-09T03:04:30;7.28;;;4.88;;
63444;SDS011;49573;47.682;9.170;2023-07-09T03:07:16;6.00;;;4.38;;
63444;SDS011;49573;47.682;9.170;2023-07-09T03:10:02;6.35;;;4.30;;
63444;SDS011;49573;47.682;9.170;2023-07-09T03:12:49;7.50;;;4.75;;
63444;SDS011;49573;47.682;9.170;2023-07-09T03:15:35;6.82;;;4.45;;
63444;SDS011;49573;47.682;9.170;2023-07-09T03:18:23;7.18;;;4.40;;
63444;SDS011;49573;47.682;9.170;2023-07-09T03:21:09;7.55;;;4.50;;
63444;SDS011;49573;47.682;9.170;2023-07-09T03:23:55;6.70;;;4.57;;
63444;SDS011;49573;47.682;9.170;2023-07-09T03:26:41;8.18;;;4.70;;
63444;SDS011;49573;47.682;9.170;2023-07-09T03:29:27;7.20;;;4.35;;
63444;SDS011;49573;47.682;9.170;2023-07-09T03:32:13;6.57;;;4.72;;
63444;SDS011;49573;47.682;9.170;2023-07-09T03:35:01;8.98;;;4.80;;
63444;SDS011;49573;47.682;9.170;2023-07-09T03:37:47;7.68;;;5.03;;
63444;SDS011;49573;47.682;9.170;2023-07-09T03:40:33;8.38;;;4.53;;
63444;SDS011;49573;47.682;9.170;2023-07-09T03:43:20;8.73;;;4.75;;
63444;SDS011;49573;47.682;9.170;2023-07-09T03:48:52;6.25;;;4.28;;
63444;SDS011;49573;47.682;9.170;2023-07-09T03:51:39;8.93;;;4.82;;
63444;SDS011;49573;47.682;9.170;2023-07-09T03:54:26;7.00;;;4.50;;
63444;SDS011;49573;47.682;9.170;2023-07-09T03:57:12;7.63;;;4.88;;
63444;SDS011;49573;47.682;9.170;2023-07-09T03:59:58;6.30;;;4.57;;
63444;SDS011;49573;47.682;9.170;2023-07-09T04:02:44;9.25;;;5.05;;
63444;SDS011;49573;47.682;9.170;2023-07-09T04:05:30;7.43;;;4.60;;
63444;SDS011;49573;47.682;9.170;2023-07-09T04:08:17;7.23;;;4.60;;
63444;SDS011;49573;47.682;9.170;2023-07-09T04:11:03;7.25;;;4.70;;
63444;SDS011;49573;47.682;9.170;2023-07-09T04:13:50;7.60;;;4.85;;
63444;SDS011;49573;47.682;9.170;2023-07-09T04:16:36;7.30;;;4.50;;
63444;SDS011;49573;47.682;9.170;2023-07-09T04:19:22;7.13;;;4.70;;
63444;SDS011;49573;47.682;9.170;2023-07-09T04:22:08;6.82;;;4.28;;
63444;SDS011;49573;47.682;9.170;2023-07-09T04:24:57;6.25;;;4.05;;
63444;SDS011;49573;47.682;9.170;2023-07-09T04:27:43;8.23;;;4.90;;
63444;SDS011;49573;47.682;9.170;2023-07-09T04:30:29;6.35;;;4.90;;
63444;SDS011;49573;47.682;9.170;2023-07-09T04:33:16;7.03;;;5.00;;
63444;SDS011;49573;47.682;9.170;2023-07-09T04:36:02;6.40;;;4.85;;
63444;SDS011;49573;47.682;9.170;2023-07-09T04:38:52;7.90;;;5.05;;
63444;SDS011;49573;47.682;9.170;2023-07-09T04:41:39;7.88;;;4.97;;
63444;SDS011;49573;47.682;9.170;2023-07-09T04:44:25;7.53;;;4.72;;
63444;SDS011;49573;47.682;9.170;2023-07-09T04:47:11;8.50;;;5.00;;
63444;SDS011;49573;47.682;9.170;2023-07-09T04:49:57;11.00;;;5.03;;
63444;SDS011;49573;47.682;9.170;2023-07-09T04:52:44;7.40;;;4.37;;
63444;SDS011;49573;47.682;9.170;2023-07-09T04:55:30;7.60;;;4.90;;
63444;SDS011;49573;47.682;9.170;2023-07-09T04:58:17;8.38;;;4.53;;
63444;SDS011;49573;47.682;9.170;2023-07-09T05:01:04;6.35;;;4.60;;
63444;SDS011;49573;47.682;9.170;2023-07-09T05:03:50;7.10;;;4.70;;
63444;SDS011;49573;47.682;9.170;2023-07-09T05:06:36;9.05;;;5.32;;
63444;SDS011;49573;47.682;9.170;2023-07-09T05:12:09;11.35;;;4.78;;
63444;SDS011;49573;47.682;9.170;2023-07-09T05:14:57;6.65;;;4.47;;
63444;SDS011;49573;47.682;9.170;2023-07-09T05:17:43;7.00;;;4.80;;
63444;SDS011;49573;47.682;9.170;2023-07-09T05:20:29;6.90;;;4.50;;
63444;SDS011;49573;47.682;9.170;2023-07-09T05:23:16;8.13;;;4.90;;
63444;SDS011;49573;47.682;9.170;2023-07-09T05:26:02;7.43;;;4.50;;
63444;SDS011;49573;47.682;9.170;2023-07-09T05:31:37;9.25;;;5.07;;
63444;SDS011;49573;47.682;9.170;2023-07-09T05:34:23;6.78;;;5.13;;
63444;SDS011;49573;47.682;9.170;2023-07-09T05:37:09;7.78;;;4.95;;
63444;SDS011;49573;47.682;9.170;2023-07-09T05:39:55;9.57;;;5.15;;
63444;SDS011;49573;47.682;9.170;2023-07-09T05:42:41;7.80;;;4.93;;
63444;SDS011;49573;47.682;9.170;2023-07-09T05:45:27;9.30;;;5.53;;
63444;SDS011;49573;47.682;9.170;2023-07-09T05:48:15;9.18;;;5.15;;
63444;SDS011;49573;47.682;9.170;2023-07-09T05:51:01;7.63;;;5.50;;
63444;SDS011;49573;47.682;9.170;2023-07-09T05:53:47;7.15;;;4.85;;
63444;SDS011;49573;47.682;9.170;2023-07-09T05:56:33;7.63;;;5.18;;
63444;SDS011;49573;47.682;9.170;2023-07-09T05:59:19;8.38;;;5.88;;
63444;SDS011;49573;47.682;9.170;2023-07-09T06:02:07;8.55;;;5.35;;
63444;SDS011;49573;47.682;9.170;2023-07-09T06:04:57;8.13;;;5.40;;
63444;SDS011;49573;47.682;9.170;2023-07-09T06:07:43;8.68;;;5.18;;
63444;SDS011;49573;47.682;9.170;2023-07-09T06:10:29;9.00;;;5.07;;
63444;SDS011;49573;47.682;9.170;2023-07-09T06:13:15;7.88;;;5.25;;
63444;SDS011;49573;47.682;9.170;2023-07-09T06:16:04;8.65;;;4.95;;
63444;SDS011;49573;47.682;9.170;2023-07-09T06:18:50;8.70;;;5.55;;
63444;SDS011;49573;47.682;9.170;2023-07-09T06:21:38;8.70;;;5.10;;
63444;SDS011;49573;47.682;9.170;2023-07-09T06:24:24;10.23;;;4.90;;
63444;SDS011;49573;47.682;9.170;2023-07-09T06:27:10;7.57;;;4.90;;
63444;SDS011;49573;47.682;9.170;2023-07-09T06:29:56;8.35;;;5.05;;
63444;SDS011;49573;47.682;9.170;2023-07-09T06:32:42;9.27;;;5.22;;
63444;SDS011;49573;47.682;9.170;2023-07-09T06:35:28;7.82;;;4.95;;
63444;SDS011;49573;47.682;9.170;2023-07-09T06:38:16;9.65;;;5.00;;
63444;SDS011;49573;47.682;9.170;2023-07-09T06:41:02;9.32;;;4.63;;
63444;SDS011;49573;47.682;9.170;2023-07-09T06:43:48;9.05;;;4.88;;
63444;SDS011;49573;47.682;9.170;2023-07-09T06:46:35;6.50;;;4.53;;
63444;SDS011;49573;47.682;9.170;2023-07-09T06:49:21;8.25;;;4.47;;
63444;SDS011;49573;47.682;9.170;2023-07-09T06:52:07;7.75;;;4.82;;
63444;SDS011;49573;47.682;9.170;2023-07-09T06:54:54;7.07;;;4.60;;
63444;SDS011;49573;47.682;9.170;2023-07-09T06:57:40;7.22;;;4.75;;
63444;SDS011;49573;47.682;9.170;2023-07-09T07:00:26;7.20;;;4.30;;
63444;SDS011;49573;47.682;9.170;2023-07-09T07:03:12;8.13;;;4.68;;
63444;SDS011;49573;47.682;9.170;2023-07-09T07:05:59;7.38;;;4.60;;
63444;SDS011;49573;47.682;9.170;2023-07-09T07:08:45;6.57;;;4.57;;
63444;SDS011;49573;47.682;9.170;2023-07-09T07:11:33;7.05;;;4.40;;
63444;SDS011;49573;47.682;9.170;2023-07-09T07:14:19;9.77;;;5.00;;
63444;SDS011;49573;47.682;9.170;2023-07-09T07:17:05;8.75;;;5.30;;
63444;SDS011;49573;47.682;9.170;2023-07-09T07:19:51;8.43;;;4.93;;
63444;SDS011;49573;47.682;9.170;2023-07-09T07:22:37;8.30;;;5.32;;
63444;SDS011;49573;47.682;9.170;2023-07-09T07:25:24;8.45;;;4.53;;
63444;SDS011;49573;47.682;9.170;2023-07-09T07:28:12;7.32;;;4.65;;
63444;SDS011;49573;47.682;9.170;2023-07-09T07:30:59;7.50;;;4.90;;
63444;SDS011;49573;47.682;9.170;2023-07-09T07:36:31;7.28;;;4.65;;
63444;SDS011;49573;47.682;9.170;2023-07-09T07:39:17;11.82;;;5.07;;
63444;SDS011;49573;47.682;9.170;2023-07-09T07:42:04;7.95;;;5.18;;
63444;SDS011;49573;47.682;9.170;2023-07-09T07:44:52;7.03;;;4.53;;
63444;SDS011;49573;47.682;9.170;2023-07-09T07:47:38;8.57;;;5.00;;
63444;SDS011;49573;47.682;9.170;2023-07-09T07:50:25;8.48;;;5.28;;
63444;SDS011;49573;47.682;9.170;2023-07-09T07:53:11;7.55;;;4.90;;
63444;SDS011;49573;47.682;9.170;2023-07-09T07:55:59;7.70;;;4.93;;
63444;SDS011;49573;47.682;9.170;2023-07-09T07:58:48;7.90;;;5.10;;
63444;SDS011;49573;47.682;9.170;2023-07-09T08:01:35;7.82;;;5.22;;
63444;SDS011;49573;47.682;9.170;2023-07-09T08:04:21;8.13;;;5.20;;
63444;SDS011;49573;47.682;9.170;2023-07-09T08:07:08;6.53;;;4.63;;
63444;SDS011;49573;47.682;9.170;2023-07-09T08:09:54;6.70;;;4.85;;
63444;SDS011;49573;47.682;9.170;2023-07-09T08:12:41;7.40;;;5.28;;
63444;SDS011;49573;47.682;9.170;2023-07-09T08:15:27;7.90;;;5.25;;
63444;SDS011;49573;47.682;9.170;2023-07-09T08:18:14;6.35;;;4.90;;
63444;SDS011;49573;47.682;9.170;2023-07-09T08:21:01;9.75;;;5.25;;
63444;SDS011;49573;47.682;9.170;2023-07-09T08:23:47;7.78;;;5.30;;
63444;SDS011;49573;47.682;9.170;2023-07-09T08:26:33;7.38;;;5.00;;
63444;SDS011;49573;47.682;9.170;2023-07-09T08:29:19;9.95;;;5.18;;
63444;SDS011;49573;47.682;9.170;2023-07-09T08:32:06;7.38;;;5.28;;
63444;SDS011;49573;47.682;9.170;2023-07-09T08:34:54;7.80;;;5.43;;
63444;SDS011;49573;47.682;9.170;2023-07-09T08:37:40;9.15;;;5.40;;
63444;SDS011;49573;47.682;9.170;2023-07-09T08:40:26;8.23;;;4.95;;
63444;SDS011;49573;47.682;9.170;2023-07-09T08:43:14;8.38;;;5.07;;
63444;SDS011;49573;47.682;9.170;2023-07-09T08:46:14;6.20;;;4.47;;
63444;SDS011;49573;47.682;9.170;2023-07-09T08:49:12;7.45;;;4.78;;
63444;SDS011;49573;47.682;9.170;2023-07-09T08:52:05;8.23;;;5.20;;
63444;SDS011;49573;47.682;9.170;2023-07-09T08:54:59;6.53;;;5.10;;
63444;SDS011;49573;47.682;9.170;2023-07-09T08:57:50;8.25;;;5.18;;
63444;SDS011;49573;47.682;9.170;2023-07-09T09:00:41;7.85;;;5.00;;
63444;SDS011;49573;47.682;9.170;2023-07-09T09:03:32;7.40;;;5.13;;
63444;SDS011;49573;47.682;9.170;2023-07-09T09:06:26;6.80;;;4.97;;
63444;SDS011;49573;47.682;9.170;2023-07-09T09:09:18;6.78;;;5.30;;
63444;SDS011;49573;47.682;9.170;2023-07-09T09:12:13;7.18;;;5.00;;
63444;SDS011;49573;47.682;9.170;2023-07-09T09:15:02;5.43;;;4.45;;
63444;SDS011;49573;47.682;9.170;2023-07-09T09:17:56;8.75;;;5.20;;
63444;SDS011;49573;47.682;9.170;2023-07-09T09:20:57;6.13;;;4.45;;
63444;SDS011;49573;47.682;9.170;2023-07-09T09:23:48;6.85;;;4.30;;
63444;SDS011;49573;47.682;9.170;2023-07-09T09:26:41;6.05;;;4.32;;
63444;SDS011;49573;47.682;9.170;2023-07-09T09:29:28;7.88;;;4.68;;
63444;SDS011;49573;47.682;9.170;2023-07-09T09:32:18;6.38;;;4.30;;
63444;SDS011;49573;47.682;9.170;2023-07-09T09:35:11;6.15;;;4.28;;
63444;SDS011;49573;47.682;9.170;2023-07-09T09:37:58;6.10;;;4.47;;
63444;SDS011;49573;47.682;9.170;2023-07-09T09:40:45;6.82;;;4.30;;
63444;SDS011;49573;47.682;9.170;2023-07-09T09:43:33;6.68;;;4.22;;
63444;SDS011;49573;47.682;9.170;2023-07-09T09:46:21;7.13;;;4.75;;
63444;SDS011;49573;47.682;9.170;2023-07-09T09:49:09;6.72;;;4.05;;
63444;SDS011;49573;47.682;9.170;2023-07-09T09:54:49;7.88;;;4.70;;
63444;SDS011;49573;47.682;9.170;2023-07-09T09:57:38;6.45;;;4.32;;
63444;SDS011;49573;47.682;9.170;2023-07-09T10:00:26;5.95;;;3.88;;
63444;SDS011;49573;47.682;9.170;2023-07-09T10:03:14;8.23;;;4.30;;
63444;SDS011;49573;47.682;9.170;2023-07-09T10:06:01;5.40;;;4.20;;
63444;SDS011;49573;47.682;9.170;2023-07-09T10:08:56;7.97;;;4.18;;
63444;SDS011;49573;47.682;9.170;2023-07-09T10:11:47;8.20;;;4.53;;
63444;SDS011;49573;47.682;9.170;2023-07-09T10:14:40;8.32;;;4.80;;
63444;SDS011;49573;47.682;9.170;2023-07-09T10:17:35;8.48;;;5.22;;
63444;SDS011;49573;47.682;9.170;2023-07-09T10:20:24;6.80;;;4.95;;
63444;SDS011;49573;47.682;9.170;2023-07-09T10:23:19;7.97;;;4.97;;
63444;SDS011;49573;47.682;9.170;2023-07-09T10:26:11;7.45;;;4.72;;
63444;SDS011;49573;47.682;9.170;2023-07-09T10:32:26;5.93;;;5.07;;
63444;SDS011;49573;47.682;9.170;2023-07-09T10:35:29;8.05;;;4.63;;
63444;SDS011;49573;47.682;9.170;2023-07-09T10:38:25;8.48;;;5.30;;
63444;SDS011;49573;47.682;9.170;2023-07-09T10:41:24;11.70;;;5.95;;
63444;SDS011;49573;47.682;9.170;2023-07-09T10:44:15;7.38;;;5.32;;
63444;SDS011;49573;47.682;9.170;2023-07-09T10:47:05;7.40;;;5.20;;
63444;SDS011;49573;47.682;9.170;2023-07-09T10:49:56;6.25;;;5.20;;
63444;SDS011;49573;47.682;9.170;2023-07-09T10:52:44;7.18;;;4.57;;
63444;SDS011;49573;47.682;9.170;2023-07-09T10:55:36;8.93;;;4.80;;
63444;SDS011;49573;47.682;9.170;2023-07-09T10:58:30;5.70;;;4.20;;
63444;SDS011;49573;47.682;9.170;2023-07-09T11:01:21;7.22;;;4.57;;
63444;SDS011;49573;47.682;9.170;2023-07-09T11:04:17;6.15;;;4.03;;
63444;SDS011;49573;47.682;9.170;2023-07-09T11:07:17;5.13;;;3.95;;
63444;SDS011;49573;47.682;9.170;2023-07-09T11:10:10;4.68;;;3.70;;
63444;SDS011;49573;47.682;9.170;2023-07-09T11:13:08;6.28;;;4.07;;
63444;SDS011;49573;47.682;9.170;2023-07-09T11:15:58;5.85;;;3.60;;
63444;SDS011;49573;47.682;9.170;2023-07-09T11:18:52;10.13;;;4.20;;
63444;SDS011;49573;47.682;9.170;2023-07-09T11:21:44;6.05;;;4.20;;
63444;SDS011;49573;47.682;9.170;2023-07-09T11:24:48;7.25;;;4.00;;
63444;SDS011;49573;47.682;9.170;2023-07-09T11:27:45;5.35;;;3.95;;
63444;SDS011;49573;47.682;9.170;2023-07-09T11:30:45;5.72;;;3.72;;
63444;SDS011;49573;47.682;9.170;2023-07-09T11:33:32;5.75;;;3.60;;
63444;SDS011;49573;47.682;9.170;2023-07-09T11:36:23;4.65;;;3.55;;
63444;SDS011;49573;47.682;9.170;2023-07-09T11:39:16;5.65;;;3.72;;
63444;SDS011;49573;47.682;9.170;2023-07-09T11:45:04;7.10;;;3.88;;
63444;SDS011;49573;47.682;9.170;2023-07-09T11:47:55;5.65;;;3.70;;
63444;SDS011;49573;47.682;9.170;2023-07-09T11:50:50;5.35;;;3.40;;
63444;SDS011;49573;47.682;9.170;2023-07-09T11:53:41;6.70;;;3.67;;
63444;SDS011;49573;47.682;9.170;2023-07-09T11:56:29;5.57;;;3.40;;
63444;SDS011;49573;47.682;9.170;2023-07-09T11:59:16;6.15;;;3.50;;
63444;SDS011;49573;47.682;9.170;2023-07-09T12:02:04;5.68;;;3.40;;
63444;SDS011;49573;47.682;9.170;2023-07-09T12:04:52;5.50;;;3.70;;
63444;SDS011;49573;47.682;9.170;2023-07-09T12:07:38;4.50;;;3.55;;
63444;SDS011;49573;47.682;9.170;2023-07-09T12:10:26;6.80;;;3.65;;
63444;SDS011;49573;47.682;9.170;2023-07-09T12:13:13;5.78;;;3.40;;
63444;SDS011;49573;47.682;9.170;2023-07-09T12:16:00;5.00;;;3.38;;
63444;SDS011;49573;47.682;9.170;2023-07-09T12:18:47;4.82;;;3.10;;
63444;SDS011;49573;47.682;9.170;2023-07-09T12:21:34;4.85;;;2.85;;
63444;SDS011;49573;47.682;9.170;2023-07-09T12:24:24;4.53;;;3.10;;
63444;SDS011;49573;47.682;9.170;2023-07-09T12:27:21;4.38;;;3.10;;
63444;SDS011;49573;47.682;9.170;2023-07-09T12:30:09;4.03;;;2.85;;
63444;SDS011;49573;47.682;9.170;2023-07-09T12:32:57;3.70;;;2.58;;
63444;SDS011;49573;47.682;9.170;2023-07-09T12:35:45;5.60;;;3.15;;
63444;SDS011;49573;47.682;9.170;2023-07-09T12:38:42;4.43;;;3.03;;
63444;SDS011;49573;47.682;9.170;2023-07-09T12:41:32;4.10;;;2.75;;
63444;SDS011;49573;47.682;9.170;2023-07-09T12:44:21;3.53;;;2.83;;
63444;SDS011;49573;47.682;9.170;2023-07-09T12:47:09;3.53;;;2.78;;
63444;SDS011;49573;47.682;9.170;2023-07-09T12:50:02;3.75;;;2.88;;
63444;SDS011;49573;47.682;9.170;2023-07-09T12:52:50;3.60;;;2.88;;
63444;SDS011;49573;47.682;9.170;2023-07-09T12:55:38;3.63;;;2.60;;
63444;SDS011;49573;47.682;9.170;2023-07-09T12:58:27;4.40;;;2.80;;
63444;SDS011;49573;47.682;9.170;2023-07-09T13:01:14;4.18;;;2.70;;
63444;SDS011;49573;47.682;9.170;2023-07-09T13:04:01;5.80;;;2.97;;
63444;SDS011;49573;47.682;9.170;2023-07-09T13:06:48;4.93;;;2.97;;
63444;SDS011;49573;47.682;9.170;2023-07-09T13:09:36;3.10;;;2.33;;
63444;SDS011;49573;47.682;9.170;2023-07-09T13:12:29;4.15;;;2.70;;
63444;SDS011;49573;47.682;9.170;2023-07-09T13:15:19;4.15;;;2.30;;
63444;SDS011;49573;47.682;9.170;2023-07-09T13:18:07;3.95;;;2.60;;
63444;SDS011;49573;47.682;9.170;2023-07-09T13:20:55;3.13;;;2.20;;
63444;SDS011;49573;47.682;9.170;2023-07-09T13:23:41;4.30;;;2.67;;
63444;SDS011;49573;47.682;9.170;2023-07-09T13:26:29;6.53;;;2.65;;
63444;SDS011;49573;47.682;9.170;2023-07-09T13:29:16;3.97;;;2.60;;
63444;SDS011;49573;47.682;9.170;2023-07-09T13:32:04;4.22;;;2.40;;
63444;SDS011;49573;47.682;9.170;2023-07-09T13:34:55;3.83;;;2.40;;
63444;SDS011;49573;47.682;9.170;2023-07-09T13:37:41;3.08;;;2.35;;
63444;SDS011;49573;47.682;9.170;2023-07-09T13:40:28;4.57;;;2.40;;
63444;SDS011;49573;47.682;9.170;2023-07-09T13:43:17;4.78;;;2.85;;
63444;SDS011;49573;47.682;9.170;2023-07-09T13:46:05;5.43;;;2.60;;
63444;SDS011;49573;47.682;9.170;2023-07-09T13:48:52;4.57;;;3.03;;
63444;SDS011;49573;47.682;9.170;2023-07-09T13:51:38;4.18;;;2.65;;
63444;SDS011;49573;47.682;9.170;2023-07-09T13:54:26;4.03;;;2.75;;
63444;SDS011;49573;47.682;9.170;2023-07-09T13:57:13;6.75;;;3.00;;
63444;SDS011;49573;47.682;9.170;2023-07-09T14:00:01;6.80;;;3.25;;
63444;SDS011;49573;47.682;9.170;2023-07-09T14:02:48;5.63;;;2.92;;
63444;SDS011;49573;47.682;9.170;2023-07-09T14:05:34;5.38;;;2.83;;
63444;SDS011;49573;47.682;9.170;2023-07-09T14:08:21;4.43;;;3.13;;
63444;SDS011;49573;47.682;9.170;2023-07-09T14:11:08;4.40;;;2.97;;
63444;SDS011;49573;47.682;9.170;2023-07-09T14:13:56;5.20;;;3.30;;
63444;SDS011;49573;47.682;9.170;2023-07-09T14:16:44;6.32;;;3.10;;
63444;SDS011;49573;47.682;9.170;2023-07-09T14:19:31;5.88;;;3.15;;
63444;SDS011;49573;47.682;9.170;2023-07-09T14:22:29;7.00;;;3.35;;
63444;SDS011;49573;47.682;9.170;2023-07-09T14:25:18;6.55;;;3.30;;
63444;SDS011;49573;47.682;9.170;2023-07-09T14:28:07;6.68;;;2.90;;
63444;SDS011;49573;47.682;9.170;2023-07-09T14:30:54;7.43;;;3.40;;
63444;SDS011;49573;47.682;9.170;2023-07-09T14:33:42;4.63;;;3.22;;
63444;SDS011;49573;47.682;9.170;2023-07-09T14:36:29;5.30;;;3.35;;
63444;SDS011;49573;47.682;9.170;2023-07-09T14:39:15;5.22;;;3.25;;
63444;SDS011;49573;47.682;9.170;2023-07-09T14:42:02;6.05;;;3.47;;
63444;SDS011;49573;47.682;9.170;2023-07-09T14:44:49;4.28;;;3.10;;
63444;SDS011;49573;47.682;9.170;2023-07-09T14:47:36;5.65;;;3.63;;
63444;SDS011;49573;47.682;9.170;2023-07-09T14:50:24;6.30;;;3.17;;
63444;SDS011;49573;47.682;9.170;2023-07-09T14:53:11;5.45;;;3.10;;
63444;SDS011;49573;47.682;9.170;2023-07-09T14:55:59;4.97;;;2.95;;
63444;SDS011;49573;47.682;9.170;2023-07-09T14:58:45;7.32;;;3.10;;
63444;SDS011;49573;47.682;9.170;2023-07-09T15:01:32;8.32;;;3.03;;
63444;SDS011;49573;47.682;9.170;2023-07-09T15:04:25;5.68;;;3.50;;
63444;SDS011;49573;47.682;9.170;2023-07-09T15:07:13;7.95;;;3.30;;
63444;SDS011;49573;47.682;9.170;2023-07-09T15:10:00;6.00;;;2.95;;
63444;SDS011;49573;47.682;9.170;2023-07-09T15:12:50;7.60;;;3.53;;
63444;SDS011;49573;47.682;9.170;2023-07-09T15:15:37;5.05;;;3.28;;
63444;SDS011;49573;47.682;9.170;2023-07-09T15:18:23;6.60;;;3.47;;
63444;SDS011;49573;47.682;9.170;2023-07-09T15:21:09;6.30;;;3.30;;
63444;SDS011;49573;47.682;9.170;2023-07-09T15:23:57;4.93;;;3.22;;
63444;SDS011;49573;47.682;9.170;2023-07-09T15:26:43;5.68;;;3.13;;
63444;SDS011;49573;47.682;9.170;2023-07-09T15:29:30;3.92;;;3.00;;
63444;SDS011;49573;47.682;9.170;2023-07-09T15:32:17;6.70;;;3.47;;
63444;SDS011;49573;47.682;9.170;2023-07-09T15:35:03;8.85;;;3.50;;
63444;SDS011;49573;47.682;9.170;2023-07-09T15:37:49;5.68;;;3.10;;
63444;SDS011;49573;47.682;9.170;2023-07-09T15:40:37;5.28;;;3.10;;
63444;SDS011;49573;47.682;9.170;2023-07-09T15:43:24;5.20;;;3.22;;
63444;SDS011;49573;47.682;9.170;2023-07-09T15:46:11;7.03;;;3.50;;
63444;SDS011;49573;47.682;9.170;2023-07-09T15:49:02;7.50;;;3.38;;
63444;SDS011;49573;47.682;9.170;2023-07-09T15:51:49;5.72;;;3.45;;
63444;SDS011;49573;47.682;9.170;2023-07-09T15:54:36;5.38;;;3.00;;
63444;SDS011;49573;47.682;9.170;2023-07-09T15:57:23;7.90;;;3.50;;
63444;SDS011;49573;47.682;9.170;2023-07-09T16:00:14;6.30;;;3.10;;
63444;SDS011;49573;47.682;9.170;2023-07-09T16:03:02;6.97;;;2.92;;
63444;SDS011;49573;47.682;9.170;2023-07-09T16:05:48;7.68;;;3.30;;
63444;SDS011;49573;47.682;9.170;2023-07-09T16:08:35;6.68;;;2.90;;
63444;SDS011;49573;47.682;9.170;2023-07-09T16:11:21;7.85;;;3.08;;
63444;SDS011;49573;47.682;9.170;2023-07-09T16:14:15;5.15;;;3.30;;
63444;SDS011;49573;47.682;9.170;2023-07-09T16:17:02;6.63;;;3.22;;
63444;SDS011;49573;47.682;9.170;2023-07-09T16:19:48;5.20;;;2.95;;
63444;SDS011;49573;47.682;9.170;2023-07-09T16:22:35;4.57;;;2.95;;
63444;SDS011;49573;47.682;9.170;2023-07-09T16:25:23;5.57;;;3.08;;
63444;SDS011;49573;47.682;9.170;2023-07-09T16:28:11;5.65;;;3.20;;
63444;SDS011;49573;47.682;9.170;2023-07-09T16:30:59;5.78;;;3.00;;
63444;SDS011;49573;47.682;9.170;2023-07-09T16:33:45;5.55;;;2.97;;
63444;SDS011;49573;47.682;9.170;2023-07-09T16:36:34;7.60;;;3.22;;
63444;SDS011;49573;47.682;9.170;2023-07-09T16:39:23;4.57;;;3.00;;
63444;SDS011;49573;47.682;9.170;2023-07-09T16:42:10;6.05;;;3.50;;
63444;SDS011;49573;47.682;9.170;2023-07-09T16:44:58;6.00;;;3.20;;
63444;SDS011;49573;47.682;9.170;2023-07-09T16:47:46;7.25;;;3.03;;
63444;SDS011;49573;47.682;9.170;2023-07-09T16:50:32;5.72;;;3.50;;
63444;SDS011;49573;47.682;9.170;2023-07-09T16:53:19;5.88;;;3.08;;
63444;SDS011;49573;47.682;9.170;2023-07-09T16:56:07;6.32;;;2.90;;
63444;SDS011;49573;47.682;9.170;2023-07-09T16:58:54;5.15;;;3.20;;
63444;SDS011;49573;47.682;9.170;2023-07-09T17:01:41;5.68;;;2.90;;
63444;SDS011;49573;47.682;9.170;2023-07-09T17:04:30;5.90;;;3.30;;
63444;SDS011;49573;47.682;9.170;2023-07-09T17:07:17;6.72;;;4.22;;
63444;SDS011;49573;47.682;9.170;2023-07-09T17:10:03;5.50;;;3.13;;
63444;SDS011;49573;47.682;9.170;2023-07-09T17:12:50;5.82;;;3.40;;
63444;SDS011;49573;47.682;9.170;2023-07-09T17:15:40;7.93;;;3.33;;
63444;SDS011;49573;47.682;9.170;2023-07-09T17:18:28;4.70;;;3.25;;
63444;SDS011;49573;47.682;9.170;2023-07-09T17:21:15;7.32;;;3.42;;
63444;SDS011;49573;47.682;9.170;2023-07-09T17:24:03;5.28;;;3.10;;
63444;SDS011;49573;47.682;9.170;2023-07-09T17:26:51;5.53;;;3.10;;
63444;SDS011;49573;47.682;9.170;2023-07-09T17:29:38;4.90;;;3.03;;